Time;durP1;ratioP1;P1;durP2;ratioP2;P2;SDS_P1;SDS_P2;PMS_P1;PMS_P2;Temp;Humidity;BMP_temperature;BMP_pressure;BME280_temperature;BME280_humidity;BME280_pressure;Samples;Min_cycle;Max_cycle;Signal;HPM_P1;HPM_P2
2024/01/08 00:01:14;;;;;;;1.67;1.67;;;;;;;-1.11;87.83;99191.47;4130162;28;20709;-66
2024/01/08 00:03:15;;;;;;;1.63;1.63;;;;;;;-1.06;87.07;99199.91;4129976;28;20639;-66
2024/01/08 00:05:17;;;;;;;1.93;1.93;;;;;;;-0.99;87.61;99197.41;4130673;28;20257;-66
2024/01/08 00:07:18;;;;;;;1.50;1.50;;;;;;;-0.93;88.46;99196.75;4130418;28;20224;-66
2024/01/08 00:09:20;;;;;;;2.37;2.27;;;;;;;-1.05;87.59;99203.41;4129605;28;20261;-66
2024/01/08 00:11:22;;;;;;;1.40;1.40;;;;;;;-1.02;87.61;99195.06;4130520;28;20305;-66
2024/01/08 00:13:24;;;;;;;1.77;1.77;;;;;;;-1.00;88.59;99195.72;4130246;28;20206;-66
2024/01/08 00:15:26;;;;;;;1.80;1.80;;;;;;;-0.98;87.33;99199.09;4128473;28;20206;-66
2024/01/08 00:17:27;;;;;;;1.20;1.20;;;;;;;-1.01;87.54;99194.88;4130159;28;20272;-65
2024/01/08 00:19:29;;;;;;;1.67;1.63;;;;;;;-1.07;87.79;99200.06;4129940;28;20241;-66
2024/01/08 00:21:30;;;;;;;2.10;2.10;;;;;;;-1.16;88.07;99201.00;4128376;28;20217;-66
2024/01/08 00:23:34;;;;;;;1.83;1.73;;;;;;;-1.06;88.86;99196.38;4130325;28;20237;-66
2024/01/08 00:25:36;;;;;;;1.90;1.90;;;;;;;-1.02;87.86;99197.75;4130088;28;20213;-66
2024/01/08 00:27:37;;;;;;;1.57;1.57;;;;;;;-0.93;88.74;99196.75;4129499;28;20669;-65
2024/01/08 00:29:39;;;;;;;2.60;2.50;;;;;;;-1.07;87.56;99192.00;4128343;28;20233;-65
2024/01/08 00:31:41;;;;;;;1.63;1.63;;;;;;;-1.09;86.99;99194.84;4128800;28;20569;-66
2024/01/08 00:33:42;;;;;;;2.23;2.13;;;;;;;-1.11;88.37;99193.31;4129051;28;20210;-66
2024/01/08 00:35:44;;;;;;;2.70;2.60;;;;;;;-1.17;88.20;99191.25;4130070;28;20248;-66
2024/01/08 00:37:45;;;;;;;1.83;1.83;;;;;;;-1.12;88.10;99197.00;4129331;28;20260;-65
2024/01/08 00:39:47;;;;;;;2.00;1.90;;;;;;;-1.14;88.43;99199.00;4128706;28;20759;-66
2024/01/08 00:41:49;;;;;;;1.60;1.60;;;;;;;-1.09;87.63;99194.00;4113294;28;20709;-65
2024/01/08 00:43:51;;;;;;;2.13;2.03;;;;;;;-1.16;88.04;99191.13;4129545;28;20233;-65
2024/01/08 00:45:53;;;;;;;1.97;1.87;;;;;;;-1.04;88.84;99194.34;4127969;28;20691;-66
2024/01/08 00:47:54;;;;;;;1.83;1.80;;;;;;;-1.02;87.94;99198.56;4130625;28;20207;-66
2024/01/08 00:49:56;;;;;;;1.83;1.83;;;;;;;-1.07;88.31;99194.69;4112359;28;20243;-66
2024/01/08 00:51:59;;;;;;;1.50;1.50;;;;;;;-0.98;89.45;99191.03;4128208;28;20600;-66
2024/01/08 00:54:01;;;;;;;1.73;1.73;;;;;;;-0.94;89.08;99192.41;4130012;28;20639;-66
2024/01/08 00:56:02;;;;;;;1.33;1.33;;;;;;;-0.95;89.23;99193.41;4127900;28;20210;-66
2024/01/08 00:58:04;;;;;;;1.63;1.63;;;;;;;-1.04;88.16;99188.97;4128347;28;20596;-65
2024/01/08 01:00:07;;;;;;;1.37;1.37;;;;;;;-1.00;88.95;99190.34;4126993;28;20225;-66
2024/01/08 01:02:09;;;;;;;1.80;1.70;;;;;;;-1.04;88.95;99188.97;4127935;28;20237;-66
2024/01/08 01:04:10;;;;;;;1.73;1.73;;;;;;;-1.04;88.83;99188.97;4129452;28;20210;-66
2024/01/08 01:06:12;;;;;;;1.47;1.47;;;;;;;-1.09;88.96;99194.00;4127484;28;20415;-66
2024/01/08 01:08:14;;;;;;;2.13;2.03;;;;;;;-1.11;88.43;99193.31;4129252;28;20244;-66
2024/01/08 01:10:15;;;;;;;2.20;2.10;;;;;;;-0.97;89.42;99195.38;4128016;28;20398;-66
2024/01/08 01:12:17;;;;;;;1.40;1.40;;;;;;;-1.00;88.99;99195.72;4128719;28;20216;-66
2024/01/08 01:14:19;;;;;;;1.37;1.37;;;;;;;-1.08;88.82;99193.00;4126484;28;20597;-66
2024/01/08 01:16:21;;;;;;;2.27;2.17;;;;;;;-1.02;89.50;99192.38;4128043;28;20206;-66
2024/01/08 01:18:22;;;;;;;1.40;1.40;;;;;;;-1.09;87.75;99192.16;4128139;28;20206;-66
2024/01/08 01:20:24;;;;;;;2.47;2.37;;;;;;;-0.99;88.35;99197.41;4128466;28;20329;-66
2024/01/08 01:22:26;;;;;;;1.30;1.30;;;;;;;-1.02;88.70;99192.38;4128248;28;20470;-66
2024/01/08 01:24:27;;;;;;;1.80;1.80;;;;;;;-1.08;88.24;99198.38;4127394;28;20269;-66
2024/01/08 01:26:29;;;;;;;1.40;1.40;;;;;;;-1.07;88.13;99200.06;4111978;28;20223;-66
2024/01/08 01:28:31;;;;;;;1.50;1.50;;;;;;;-1.05;89.12;99206.09;4128849;28;20206;-66
2024/01/08 01:30:32;;;;;;;3.50;2.00;;;;;;;-1.08;88.72;99204.56;4127236;28;20229;-66
2024/01/08 01:32:34;;;;;;;1.93;1.83;;;;;;;-1.09;87.95;99207.44;4129299;28;20237;-66
2024/01/08 01:34:37;;;;;;;1.83;1.73;;;;;;;-1.09;88.15;99207.44;4127294;28;20229;-66
2024/01/08 01:36:39;;;;;;;1.67;1.67;;;;;;;-1.05;88.80;99198.03;4127759;28;20293;-65
2024/01/08 01:38:41;;;;;;;2.20;2.10;;;;;;;-1.05;88.52;99206.94;4121454;28;20294;-66
2024/01/08 01:40:46;;;;;;;2.23;2.17;;;;;;;-1.02;87.34;99203.09;4128929;28;20240;-66
2024/01/08 01:42:49;;;;;;;1.70;1.60;;;;;;;-1.03;88.02;99206.78;4128792;28;20202;-66
2024/01/08 01:44:51;;;;;;;1.60;1.60;;;;;;;-1.10;87.53;99195.84;4127797;28;20214;-66
2024/01/08 01:46:54;;;;;;;2.07;1.97;;;;;;;-1.07;87.62;99205.44;4126229;28;20269;-66
2024/01/08 01:48:55;;;;;;;2.50;2.40;;;;;;;-1.12;86.99;99202.38;4126053;28;20677;-65
2024/01/08 01:50:57;;;;;;;1.37;1.37;;;;;;;-1.02;89.26;99205.78;4127710;28;20214;-66
2024/01/08 01:52:59;;;;;;;1.53;1.53;;;;;;;-1.07;88.37;99200.06;4128298;28;20241;-66
2024/01/08 01:55:01;;;;;;;1.60;1.60;;;;;;;-0.99;87.88;99209.00;4126723;28;20293;-66
2024/01/08 01:57:03;;;;;;;1.90;1.90;;;;;;;-1.02;88.17;99206.63;4128734;28;20225;-66
2024/01/08 01:59:05;;;;;;;1.63;1.53;;;;;;;-1.10;87.38;99203.03;4124175;28;20558;-66
2024/01/08 02:01:07;;;;;;;1.77;1.67;;;;;;;-0.99;87.33;99208.16;4122972;28;20645;-66
2024/01/08 02:03:09;;;;;;;1.67;1.63;;;;;;;-1.00;87.63;99203.78;4123988;28;20206;-66
2024/01/08 02:05:11;;;;;;;1.90;1.90;;;;;;;-0.97;87.52;99200.75;4127872;28;20209;-66
2024/01/08 02:07:13;;;;;;;1.77;1.77;;;;;;;-1.01;87.53;99204.78;4126946;28;20264;-66
2024/01/08 02:09:15;;;;;;;2.10;2.00;;;;;;;-1.05;87.86;99203.41;4126161;28;20254;-66
2024/01/08 02:11:18;;;;;;;1.47;1.47;;;;;;;-0.97;87.94;99200.75;4128588;28;20245;-66
2024/01/08 02:13:20;;;;;;;1.80;1.70;;;;;;;-0.97;87.64;99195.38;4128667;28;20206;-66
2024/01/08 02:15:21;;;;;;;1.80;1.70;;;;;;;-1.03;86.52;99201.41;4127588;28;20716;-66
2024/01/08 02:17:23;;;;;;;1.00;1.00;;;;;;;-1.02;86.74;99198.56;4128156;28;20210;-66
2024/01/08 02:19:24;;;;;;;1.50;1.40;;;;;;;-1.15;86.12;99197.34;4127524;28;20284;-66
2024/01/08 02:21:26;;;;;;;1.57;1.57;;;;;;;-1.07;86.82;99194.69;4127564;28;20217;-66
2024/01/08 02:23:27;;;;;;;1.37;1.30;;;;;;;-1.07;86.58;99189.31;4128256;28;20638;-66
2024/01/08 02:25:31;;;;;;;1.47;1.47;;;;;;;-1.05;87.28;99198.03;4126499;28;20297;-66
2024/01/08 02:27:32;;;;;;;1.70;1.70;;;;;;;-0.99;87.61;99187.50;4125422;28;20238;-66
2024/01/08 02:29:35;;;;;;;1.60;1.60;;;;;;;-0.98;86.49;99189.19;4125518;28;20332;-66
2024/01/08 02:31:37;;;;;;;1.87;1.87;;;;;;;-0.95;86.83;99188.03;4127699;28;20653;-66
2024/01/08 02:33:38;;;;;;;1.47;1.47;;;;;;;-1.00;85.68;99191.19;4128235;28;20296;-65
2024/01/08 02:35:41;;;;;;;1.47;1.47;;;;;;;-1.07;86.67;99186.63;4127937;28;20743;-66
2024/01/08 02:37:43;;;;;;;2.10;2.00;;;;;;;-1.00;86.30;99184.97;4127293;28;20206;-66
2024/01/08 02:39:44;;;;;;;1.83;1.73;;;;;;;-0.98;86.10;99189.19;4126634;28;20300;-65
2024/01/08 02:41:46;;;;;;;1.80;1.80;;;;;;;-1.09;85.52;99180.59;4127098;28;20561;-66
2024/01/08 02:43:47;;;;;;;1.40;1.40;;;;;;;-1.07;85.48;99178.56;4128547;28;20628;-65
2024/01/08 02:45:49;;;;;;;1.50;1.50;;;;;;;-1.11;85.84;99187.94;4128600;28;20704;-65
2024/01/08 02:47:51;;;;;;;1.80;1.80;;;;;;;-1.17;85.31;99178.69;4127199;28;20252;-65
2024/01/08 02:49:52;;;;;;;2.30;2.20;;;;;;;-1.19;85.04;99171.81;4111034;28;20226;-65
2024/01/08 02:51:54;;;;;;;1.30;1.30;;;;;;;-1.13;85.39;99184.59;4126776;28;20256;-65
2024/01/08 02:53:55;;;;;;;1.83;1.73;;;;;;;-1.16;85.69;99179.50;4126992;28;20253;-66
2024/01/08 02:55:57;;;;;;;1.93;1.90;;;;;;;-1.14;85.56;99172.16;4127839;28;20249;-65
2024/01/08 02:58:02;;;;;;;1.70;1.70;;;;;;;-1.12;85.94;99187.13;4127880;28;20237;-65
2024/01/08 03:00:05;;;;;;;1.10;1.10;;;;;;;-1.09;86.50;99180.59;4125439;28;20225;-65
2024/01/08 03:02:06;;;;;;;1.50;1.50;;;;;;;-1.05;86.86;99185.47;4127652;28;20224;-66
2024/01/08 03:04:08;;;;;;;1.73;1.73;;;;;;;-1.08;86.37;99176.91;4128096;28;20225;-65
2024/01/08 03:06:10;;;;;;;1.17;1.17;;;;;;;-1.05;86.57;99184.63;4127301;28;20661;-66
2024/01/08 03:08:12;;;;;;;2.17;2.07;;;;;;;-1.05;86.72;99179.25;4131396;28;20646;-66
2024/01/08 03:10:13;;;;;;;1.33;1.30;;;;;;;-1.03;86.36;99182.59;4129841;28;20333;-65
2024/01/08 03:12:15;;;;;;;1.97;1.97;;;;;;;-0.89;87.15;99184.72;4130144;28;20202;-66
2024/01/08 03:14:17;;;;;;;2.30;2.20;;;;;;;-1.05;85.46;99187.31;4131294;28;20249;-65
2024/01/08 03:16:19;;;;;;;1.60;1.60;;;;;;;-1.07;86.19;99189.31;4131193;28;20280;-66
2024/01/08 03:18:20;;;;;;;1.93;1.77;;;;;;;-1.07;87.63;99186.63;4130746;28;20202;-66
2024/01/08 03:20:22;;;;;;;1.30;1.30;;;;;;;-0.99;87.98;99187.50;4131224;28;20758;-65
2024/01/08 03:22:25;;;;;;;2.50;2.40;;;;;;;-1.11;85.38;99179.88;4114142;28;20199;-65
2024/01/08 03:24:26;;;;;;;2.70;2.60;;;;;;;-1.04;86.22;99187.16;4131277;28;20206;-65
2024/01/08 03:26:28;;;;;;;1.67;1.60;;;;;;;-1.06;85.35;99188.31;4129798;28;20641;-65
2024/01/08 03:28:30;;;;;;;1.90;1.90;;;;;;;-1.02;85.55;99182.44;4113935;28;20605;-65
2024/01/08 03:30:32;;;;;;;1.50;1.50;;;;;;;-1.03;85.17;99182.59;4127322;28;20226;-65
2024/01/08 03:32:33;;;;;;;1.23;1.23;;;;;;;-1.03;85.61;99183.47;4128797;28;20214;-66
2024/01/08 03:34:35;;;;;;;1.87;1.87;;;;;;;-1.07;86.56;99179.41;4130154;28;20209;-66
2024/01/08 03:36:37;;;;;;;1.37;1.37;;;;;;;-1.07;86.85;99189.31;4129229;28;20233;-65
2024/01/08 03:38:39;;;;;;;4.23;2.70;;;;;;;-1.01;86.10;99181.44;4129511;28;20213;-65
2024/01/08 03:40:40;;;;;;;1.77;1.77;;;;;;;-1.08;86.29;99193.00;4129601;28;20261;-66
2024/01/08 03:42:42;;;;;;;1.73;1.73;;;;;;;-1.09;86.83;99185.97;4129745;28;20210;-65
2024/01/08 03:44:43;;;;;;;1.93;1.83;;;;;;;-1.11;87.30;99180.75;4130461;28;20245;-65
2024/01/08 03:46:47;;;;;;;1.33;1.33;;;;;;;-1.19;88.33;99185.22;4128603;28;20280;-65
2024/01/08 03:48:49;;;;;;;1.87;1.87;;;;;;;-1.10;88.99;99178.88;4129642;28;20202;-65
2024/01/08 03:50:51;;;;;;;1.60;1.60;;;;;;;-1.12;87.58;99184.44;4131139;28;20226;-65
2024/01/08 03:52:52;;;;;;;1.10;1.10;;;;;;;-1.07;88.02;99192.00;4112856;28;20207;-66
2024/01/08 03:54:54;;;;;;;2.07;1.97;;;;;;;-1.12;89.25;99197.00;4131653;28;20214;-66
2024/01/08 03:56:55;;;;;;;1.73;1.73;;;;;;;-1.10;89.49;99201.22;4127975;28;20226;-66
2024/01/08 03:58:57;;;;;;;1.70;1.70;;;;;;;-1.17;88.64;99200.16;4112955;28;20234;-66
2024/01/08 04:01:00;;;;;;;1.40;1.40;;;;;;;-1.15;87.53;99190.09;4130950;28;20284;-65
2024/01/08 04:03:02;;;;;;;1.83;1.83;;;;;;;-1.18;88.52;99198.50;4129717;28;20210;-65
2024/01/08 04:05:04;;;;;;;1.70;1.70;;;;;;;-1.11;88.23;99188.78;4130502;28;20213;-65
2024/01/08 04:07:06;;;;;;;1.77;1.77;;;;;;;-1.11;88.34;99193.31;4129593;28;20578;-65
2024/01/08 04:09:08;;;;;;;1.83;1.73;;;;;;;-1.07;88.73;99183.94;4130258;28;20210;-66
2024/01/08 04:11:09;;;;;;;1.53;1.53;;;;;;;-1.06;89.04;99193.69;4130980;28;20645;-66
2024/01/08 04:13:11;;;;;;;1.43;1.37;;;;;;;-1.08;88.38;99187.63;4130962;28;20214;-66
2024/01/08 04:15:13;;;;;;;1.63;1.63;;;;;;;-1.00;88.07;99190.34;4129127;28;20206;-66
2024/01/08 04:17:14;;;;;;;1.60;1.60;;;;;;;-1.04;87.20;99184.47;4130045;28;20296;-66
2024/01/08 04:19:16;;;;;;;1.70;1.70;;;;;;;-1.06;86.04;99196.38;4130812;28;20849;-66
2024/01/08 04:21:17;;;;;;;1.93;1.93;;;;;;;-1.14;85.90;99196.31;4116759;28;20258;-65
2024/01/08 04:23:19;;;;;;;1.50;1.50;;;;;;;-1.15;86.56;99200.03;4130608;28;20260;-66
2024/01/08 04:25:21;;;;;;;1.37;1.37;;;;;;;-1.21;87.46;99198.78;4129902;28;20268;-66
2024/01/08 04:27:23;;;;;;;2.47;2.37;;;;;;;-1.20;87.18;99205.84;4129585;28;20234;-66
2024/01/08 04:29:24;;;;;;;2.60;2.40;;;;;;;-1.14;86.88;99199.00;4129767;28;20230;-66
2024/01/08 04:31:26;;;;;;;2.10;2.10;;;;;;;-1.26;85.66;99200.28;4128996;28;20206;-65
2024/01/08 04:33:29;;;;;;;1.83;1.83;;;;;;;-1.25;86.00;99207.34;4128423;28;20206;-65
2024/01/08 04:35:31;;;;;;;12.33;2.13;;;;;;;-1.18;86.98;99213.75;4129142;28;20716;-65
2024/01/08 04:37:33;;;;;;;2.03;1.87;;;;;;;-1.13;86.41;99211.44;4129593;28;20202;-65
2024/01/08 04:39:35;;;;;;;1.67;1.67;;;;;;;-1.09;87.24;99212.81;4127986;28;20241;-65
2024/01/08 04:41:37;;;;;;;1.53;1.53;;;;;;;-1.08;86.39;99207.25;4128863;28;20198;-65
2024/01/08 04:43:41;;;;;;;2.17;2.07;;;;;;;-1.15;85.68;99211.59;4116285;28;20472;-65
2024/01/08 04:45:42;;;;;;;1.80;1.80;;;;;;;-1.13;86.29;99216.81;4129922;28;20241;-66
2024/01/08 04:47:44;;;;;;;1.67;1.67;;;;;;;-1.12;86.13;99213.97;4128690;28;20376;-65
2024/01/08 04:49:46;;;;;;;2.63;2.53;;;;;;;-1.04;87.46;99222.06;4128690;28;20798;-65
2024/01/08 04:51:50;;;;;;;1.60;1.60;;;;;;;-1.12;86.82;99221.16;4129858;28;20206;-65
2024/01/08 04:53:52;;;;;;;2.27;2.27;;;;;;;-1.17;87.05;99226.16;4129216;28;20206;-66
2024/01/08 04:55:53;;;;;;;1.90;1.80;;;;;;;-1.18;87.00;99224.47;4131274;28;20257;-65
2024/01/08 04:57:55;;;;;;;1.53;1.53;;;;;;;-1.28;87.22;99218.41;4128023;28;20210;-65
2024/01/08 04:59:56;;;;;;;1.53;1.53;;;;;;;-1.28;86.70;99223.75;4110776;28;20249;-66
2024/01/08 05:01:58;;;;;;;2.07;2.07;;;;;;;-1.28;87.29;99221.09;4129529;28;20209;-66
2024/01/08 05:03:59;;;;;;;1.70;1.70;;;;;;;-1.27;86.13;99220.06;4129271;28;20653;-66
2024/01/08 05:06:01;;;;;;;2.27;2.17;;;;;;;-1.30;86.58;99217.69;4129190;28;20213;-66
2024/01/08 05:08:03;;;;;;;1.73;1.73;;;;;;;-1.32;87.09;99227.75;4128277;28;20232;-66
2024/01/08 05:10:06;;;;;;;1.77;1.77;;;;;;;-1.26;87.19;99221.75;4128353;28;20234;-66
2024/01/08 05:12:08;;;;;;;1.87;1.77;;;;;;;-1.29;86.56;99228.28;4129763;28;20317;-66
2024/01/08 05:14:10;;;;;;;1.73;1.63;;;;;;;-1.28;87.52;99229.13;4127925;28;20202;-65
2024/01/08 05:16:11;;;;;;;2.13;2.03;;;;;;;-1.30;87.41;99220.38;4113681;28;20232;-65
2024/01/08 05:18:13;;;;;;;2.10;2.10;;;;;;;-1.30;87.40;99220.38;4128814;28;20202;-65
2024/01/08 05:20:14;;;;;;;2.77;2.67;;;;;;;-1.23;86.90;99229.47;4110308;28;20290;-65
2024/01/08 05:22:16;;;;;;;1.50;1.50;;;;;;;-1.25;85.79;99221.59;4121439;28;20255;-65
2024/01/08 05:24:18;;;;;;;1.73;1.73;;;;;;;-1.23;86.81;99232.16;4111440;28;20206;-65
2024/01/08 05:26:19;;;;;;;1.30;1.30;;;;;;;-1.30;86.44;99220.38;4110056;28;20305;-65
2024/01/08 05:28:21;;;;;;;2.17;2.10;;;;;;;-1.33;86.21;99221.53;4112772;28;20222;-65
2024/01/08 05:30:22;;;;;;;2.33;2.33;;;;;;;-1.32;86.02;99220.56;4111423;28;20230;-65
2024/01/08 05:32:24;;;;;;;1.73;1.67;;;;;;;-1.34;87.13;99224.41;4111191;28;20745;-65
2024/01/08 05:34:27;;;;;;;2.40;2.37;;;;;;;-1.37;86.99;99225.56;4108789;28;20210;-65
2024/01/08 05:36:28;;;;;;;1.80;1.70;;;;;;;-1.28;87.95;99223.75;4110131;28;20666;-65
2024/01/08 05:38:30;;;;;;;1.73;1.73;;;;;;;-1.28;87.43;99218.41;4108045;28;20230;-65
2024/01/08 05:40:32;;;;;;;1.80;1.70;;;;;;;-1.31;87.43;99226.75;4108101;28;20235;-65
2024/01/08 05:42:34;;;;;;;1.77;1.67;;;;;;;-1.37;88.15;99220.19;4090496;28;20235;-65
2024/01/08 05:44:35;;;;;;;2.30;2.20;;;;;;;-1.34;88.01;99237.81;4111364;28;20290;-66
2024/01/08 05:46:43;;;;;;;2.40;2.30;;;;;;;-1.35;87.40;99228.09;4105721;28;20679;-65
2024/01/08 05:48:45;;;;;;;1.30;1.30;;;;;;;-1.39;88.11;99221.34;4104809;28;20316;-66
2024/01/08 05:50:47;;;;;;;1.93;1.93;;;;;;;-1.31;87.45;99229.44;4105400;28;20278;-66
2024/01/08 05:52:49;;;;;;;2.23;2.13;;;;;;;-1.34;87.01;99232.44;4095048;28;20307;-65
2024/01/08 05:54:51;;;;;;;2.10;2.10;;;;;;;-1.27;87.24;99230.81;4113209;28;20639;-65
2024/01/08 05:56:52;;;;;;;1.50;1.50;;;;;;;-1.34;87.03;99229.75;4112056;28;20333;-65
2024/01/08 05:58:54;;;;;;;1.63;1.63;;;;;;;-1.40;86.93;99241.94;4109789;28;20215;-65
2024/01/08 06:00:57;;;;;;;2.17;2.17;;;;;;;-1.40;86.44;99235.75;4104781;28;20210;-65
2024/01/08 06:02:58;;;;;;;2.03;2.00;;;;;;;-1.31;87.23;99245.53;4107060;28;20213;-65
2024/01/08 06:05:00;;;;;;;2.27;2.27;;;;;;;-1.33;86.94;99236.81;4108190;28;20336;-65
2024/01/08 06:07:02;;;;;;;2.10;2.00;;;;;;;-1.35;86.56;99234.28;4114005;28;20207;-65
2024/01/08 06:09:03;;;;;;;1.70;1.70;;;;;;;-1.36;86.11;99237.09;4094556;28;20238;-65
2024/01/08 06:11:05;;;;;;;1.70;1.70;;;;;;;-1.32;86.37;99243.84;4113589;28;20206;-65
2024/01/08 06:13:09;;;;;;;2.40;2.30;;;;;;;-1.32;86.11;99239.34;4112937;28;20293;-65
2024/01/08 06:15:11;;;;;;;2.40;2.30;;;;;;;-1.27;86.31;99233.50;4114947;28;20293;-65
2024/01/08 06:17:12;;;;;;;2.77;2.67;;;;;;;-1.37;86.22;99240.78;4096509;28;20655;-65
2024/01/08 06:19:14;;;;;;;1.97;1.97;;;;;;;-1.29;84.53;99240.88;4111608;28;20210;-65
2024/01/08 06:21:16;;;;;;;1.30;1.30;;;;;;;-1.38;83.90;99239.13;4095144;28;20298;-65
2024/01/08 06:23:17;;;;;;;1.90;1.90;;;;;;;-1.34;84.28;99240.50;4113563;28;20238;-65
2024/01/08 06:25:19;;;;;;;2.40;2.30;;;;;;;-1.38;83.97;99239.13;4114459;28;20207;-65
2024/01/08 06:27:20;;;;;;;2.57;2.47;;;;;;;-1.34;83.91;99235.94;4114793;28;20678;-65
2024/01/08 06:29:22;;;;;;;1.70;1.70;;;;;;;-1.35;83.25;99242.31;4110362;28;20230;-65
2024/01/08 06:31:24;;;;;;;2.37;2.30;;;;;;;-1.41;83.12;99240.28;4076513;29;20474;-65
2024/01/08 06:33:25;;;;;;;2.00;2.00;;;;;;;-1.36;83.96;99247.84;4111581;28;20776;-65
2024/01/08 06:35:27;;;;;;;2.10;2.10;;;;;;;-1.32;83.16;99243.84;4108373;28;20241;-66
2024/01/08 06:37:29;;;;;;;1.97;1.97;;;;;;;-1.32;83.61;99233.97;4113243;28;20214;-65
2024/01/08 06:39:30;;;;;;;1.53;1.53;;;;;;;-1.42;81.50;99237.78;4094595;28;20258;-65
2024/01/08 06:41:32;;;;;;;2.63;2.53;;;;;;;-1.41;82.14;99245.63;4111460;28;21137;-64
2024/01/08 06:43:33;;;;;;;1.60;1.50;;;;;;;-1.40;82.15;99230.41;4092959;28;20222;-65
2024/01/08 06:45:35;;;;;;;2.60;2.50;;;;;;;-1.40;81.65;99241.13;4111628;28;20245;-65
2024/01/08 06:47:36;;;;;;;1.53;1.53;;;;;;;-1.39;81.77;99242.81;4103884;28;20299;-65
2024/01/08 06:49:38;;;;;;;2.03;1.93;;;;;;;-1.35;83.42;99238.81;4110736;28;20238;-65
2024/01/08 06:51:43;;;;;;;2.27;2.17;;;;;;;-1.47;81.47;99245.44;4109889;28;20646;-65
2024/01/08 06:53:45;;;;;;;2.30;2.20;;;;;;;-1.42;82.26;99243.13;4112870;28;20202;-66
2024/01/08 06:55:47;;;;;;;3.50;2.23;;;;;;;-1.42;81.81;99248.50;4111355;28;20202;-66
2024/01/08 06:57:50;;;;;;;1.30;1.30;;;;;;;-1.40;81.42;99251.88;4110749;28;20274;-65
2024/01/08 06:59:51;;;;;;;1.90;1.80;;;;;;;-1.33;82.99;99244.88;4111780;28;20225;-66
2024/01/08 07:01:56;;;;;;;1.87;1.87;;;;;;;-1.48;82.14;99243.75;4111570;28;20301;-67
2024/01/08 07:03:57;;;;;;;1.60;1.60;;;;;;;-1.51;82.67;99244.91;4105856;28;20635;-66
2024/01/08 07:06:02;;;;;;;2.47;2.27;;;;;;;-1.45;81.50;99251.47;4102991;28;20230;-65
2024/01/08 07:08:04;;;;;;;1.97;1.87;;;;;;;-1.43;82.11;99246.78;4110302;28;20464;-65
2024/01/08 07:10:05;;;;;;;1.53;1.53;;;;;;;-1.50;82.23;99246.59;4110404;28;20226;-65
2024/01/08 07:12:08;;;;;;;2.40;2.30;;;;;;;-1.47;82.57;99254.31;4110830;28;20242;-65
2024/01/08 07:14:09;;;;;;;1.87;1.87;;;;;;;-1.42;83.15;99253.88;4103365;28;20242;-66
2024/01/08 07:16:11;;;;;;;2.17;2.07;;;;;;;-1.41;82.47;99244.81;4099270;28;20855;-65
2024/01/08 07:18:13;;;;;;;2.33;2.23;;;;;;;-1.43;83.46;99257.53;4093770;28;20200;-67
2024/01/08 07:20:15;;;;;;;1.60;1.60;;;;;;;-1.41;82.88;99244.81;4106442;28;20357;-64
2024/01/08 07:22:17;;;;;;;1.70;1.70;;;;;;;-1.39;83.08;99254.41;4111911;28;20217;-65
2024/01/08 07:24:19;;;;;;;1.97;1.97;;;;;;;-1.45;82.13;99255.03;4092074;28;20752;-66
2024/01/08 07:26:21;;;;;;;1.70;1.70;;;;;;;-1.44;82.37;99247.78;4111655;28;20213;-65
2024/01/08 07:28:23;;;;;;;1.47;1.37;;;;;;;-1.44;82.56;99255.84;4111769;28;20313;-65
2024/01/08 07:30:25;;;;;;;2.40;2.30;;;;;;;-1.52;83.36;99258.47;4111090;28;20265;-66
2024/01/08 07:32:26;;;;;;;1.43;1.43;;;;;;;-1.49;83.83;99263.53;4111099;28;20274;-65
2024/01/08 07:34:28;;;;;;;2.43;2.33;;;;;;;-1.45;83.75;99249.66;4111563;28;20575;-65
2024/01/08 07:36:31;;;;;;;1.63;1.63;;;;;;;-1.40;84.00;99258.06;4112241;28;20203;-66
2024/01/08 07:38:32;;;;;;;1.90;1.80;;;;;;;-1.39;83.46;99262.44;4113306;28;20207;-65
2024/01/08 07:40:34;;;;;;;2.60;2.50;;;;;;;-1.42;83.78;99261.91;4103842;28;20280;-66
2024/01/08 07:42:36;;;;;;;2.50;2.40;;;;;;;-1.49;83.32;99269.72;4112931;28;20624;-66
2024/01/08 07:44:37;;;;;;;1.67;1.67;;;;;;;-1.44;83.31;99266.56;4111189;28;20230;-66
2024/01/08 07:46:39;;;;;;;2.03;1.93;;;;;;;-1.39;84.08;99261.59;4110602;28;20215;-65
2024/01/08 07:48:40;;;;;;;1.73;1.73;;;;;;;-1.38;83.71;99276.69;4110457;28;20314;-65
2024/01/08 07:50:52;;;;;;;1.50;1.50;;;;;;;-1.37;83.22;99267.63;4111317;28;20250;-64
2024/01/08 07:53:34;;;;;;;2.37;2.27;;;;;;;-1.36;82.68;99272.00;4097355;28;20239;-64
2024/01/08 07:55:46;;;;;;;1.80;1.80;;;;;;;-1.45;82.61;99270.25;4097343;28;20712;-65
2024/01/08 07:57:47;;;;;;;1.50;1.50;;;;;;;-1.44;83.47;99274.63;4114616;28;20250;-65
2024/01/08 07:59:49;;;;;;;2.30;2.20;;;;;;;-1.47;83.06;99277.63;4113509;28;20658;-65
2024/01/08 08:01:50;;;;;;;2.07;1.97;;;;;;;-1.45;83.16;99276.50;4114854;28;20684;-65
2024/01/08 08:03:52;;;;;;;2.17;2.07;;;;;;;-1.38;83.68;99285.59;4107491;28;20777;-65
2024/01/08 08:05:54;;;;;;;1.93;1.83;;;;;;;-1.36;84.17;99282.72;4115645;28;20230;-65
2024/01/08 08:07:57;;;;;;;2.03;1.97;;;;;;;-1.43;83.16;99289.72;4113910;28;20293;-65
2024/01/08 08:09:58;;;;;;;2.30;2.20;;;;;;;-1.48;83.09;99287.50;4082156;29;20232;-65
2024/01/08 08:12:00;;;;;;;2.20;2.13;;;;;;;-1.48;83.54;99292.06;4114984;28;20666;-65
2024/01/08 08:14:02;;;;;;;2.03;1.93;;;;;;;-1.51;83.48;99292.34;4114503;28;20213;-67
2024/01/08 08:16:04;;;;;;;1.90;1.90;;;;;;;-1.52;83.84;99290.66;4114532;28;20726;-66
2024/01/08 08:18:06;;;;;;;2.10;1.93;;;;;;;-1.47;83.88;99299.09;4114372;28;20214;-64
2024/01/08 08:20:10;;;;;;;2.80;2.70;;;;;;;-1.48;84.01;99294.75;4113448;28;20237;-66
2024/01/08 08:22:12;;;;;;;2.37;2.17;;;;;;;-1.45;84.46;99297.09;4113780;28;20199;-66
2024/01/08 08:24:14;;;;;;;2.47;2.33;;;;;;;-1.44;84.74;99298.78;4083311;29;20216;-66
2024/01/08 08:26:16;;;;;;;2.40;2.30;;;;;;;-1.47;84.84;99291.06;4118077;28;20211;-66
2024/01/08 08:28:20;;;;;;;1.63;1.53;;;;;;;-1.40;84.62;99302.84;4114759;28;20254;-67
2024/01/08 08:30:24;;;;;;;2.30;2.17;;;;;;;-1.38;84.49;99303.53;4115637;28;20636;-66
2024/01/08 08:32:25;;;;;;;3.33;2.33;;;;;;;-1.37;84.55;99300.69;4115723;28;20202;-66
2024/01/08 08:34:28;;;;;;;2.93;2.73;;;;;;;-1.39;84.55;99312.56;4098198;28;20650;-65
2024/01/08 08:36:31;;;;;;;1.63;1.63;;;;;;;-1.40;84.65;99310.91;4112205;28;20205;-66
2024/01/08 08:38:34;;;;;;;1.73;1.73;;;;;;;-1.42;84.82;99305.69;4102384;28;20199;-66
2024/01/08 08:40:36;;;;;;;2.57;2.47;;;;;;;-1.46;84.58;99307.00;4114063;28;20230;-66
2024/01/08 08:42:37;;;;;;;2.27;2.17;;;;;;;-1.46;84.21;99307.00;4114858;28;20207;-66
2024/01/08 08:44:39;;;;;;;1.80;1.80;;;;;;;-1.48;85.29;99313.53;4113770;28;20202;-66
2024/01/08 08:46:41;;;;;;;1.63;1.60;;;;;;;-1.45;85.60;99329.28;4094837;28;20263;-66
2024/01/08 08:48:42;;;;;;;2.37;2.23;;;;;;;-1.41;85.74;99323.47;4096136;28;20754;-66
2024/01/08 08:50:44;;;;;;;2.50;2.40;;;;;;;-1.36;85.25;99320.31;4109959;28;20308;-66
2024/01/08 08:52:46;;;;;;;1.83;1.83;;;;;;;-1.44;84.72;99331.84;4114006;28;20227;-66
2024/01/08 08:54:48;;;;;;;2.07;1.97;;;;;;;-1.40;85.35;99316.25;4114461;28;20207;-66
2024/01/08 08:56:49;;;;;;;3.10;2.97;;;;;;;-1.41;85.38;99333.38;4109692;28;20211;-67
2024/01/08 08:58:51;;;;;;;2.07;2.07;;;;;;;-1.38;86.21;99330.34;4113903;28;20294;-64
2024/01/08 09:00:53;;;;;;;2.93;2.77;;;;;;;-1.31;86.91;99331.41;4114776;28;20349;-64
2024/01/08 09:02:56;;;;;;;2.67;2.57;;;;;;;-1.35;86.82;99325.53;4096669;28;20703;-64
2024/01/08 09:04:58;;;;;;;2.30;2.20;;;;;;;-1.41;87.36;99336.06;4113023;28;20326;-64
2024/01/08 09:07:00;;;;;;;1.90;1.90;;;;;;;-1.42;86.94;99334.38;4112608;28;20206;-65
2024/01/08 09:09:02;;;;;;;1.77;1.77;;;;;;;-1.45;88.24;99340.03;4112548;28;20268;-65
2024/01/08 09:11:03;;;;;;;2.00;2.00;;;;;;;-1.38;88.60;99341.09;4114068;28;20297;-65
2024/01/08 09:13:05;;;;;;;2.20;2.10;;;;;;;-1.28;89.18;99336.50;4111355;28;20210;-65
2024/01/08 09:15:07;;;;;;;1.50;1.50;;;;;;;-1.40;88.64;99332.38;4111693;28;20226;-65
2024/01/08 09:17:09;;;;;;;2.57;2.47;;;;;;;-1.37;88.36;99327.53;4113121;28;20336;-64
2024/01/08 09:19:11;;;;;;;2.17;2.00;;;;;;;-1.42;89.17;99334.38;4111067;28;20325;-65
2024/01/08 09:21:13;;;;;;;3.73;3.43;;;;;;;-1.44;90.25;99333.66;4110846;28;20222;-65
2024/01/08 09:23:15;;;;;;;2.13;2.03;;;;;;;-1.38;90.51;99331.22;4096194;28;20267;-64
2024/01/08 09:25:16;;;;;;;2.03;1.93;;;;;;;-1.37;91.38;99334.72;4114063;28;20216;-64
2024/01/08 09:27:18;;;;;;;2.20;2.10;;;;;;;-1.37;91.95;99337.41;4113816;28;20203;-64
2024/01/08 09:29:19;;;;;;;2.67;2.57;;;;;;;-1.44;91.12;99342.56;4112409;28;20550;-65
2024/01/08 09:31:21;;;;;;;2.03;1.93;;;;;;;-1.44;90.60;99352.44;4113013;28;20726;-64
2024/01/08 09:33:23;;;;;;;2.10;2.10;;;;;;;-1.60;90.88;99342.41;4109049;28;20582;-65
2024/01/08 09:35:25;;;;;;;2.23;2.23;;;;;;;-1.59;90.71;99348.63;4093475;28;20208;-65